FAEO

Ermelo Airport

Ermelo, South Africa
METAR FAEO 190703Z AUTO 33011KT //// // ////// 24/11 Q1021
Observed Flight Rules
Dec-19 @ 07:03 UTC (5 hours ago)
Wind
330° at 11 knots
Temperatures Readings
Current 24°C / 75°F
Dewpoint 11°C / 52°F
Humidity 44%
Altimeter 30.15" Hg
Pressure 1021 hPa
Elevation 1737
METAR FAEO 190703Z AUTO 33011KT //// // ////// 24/11 Q1021
Observed Flight Rules
Dec-19 @ 07:03 UTC
(5 hours ago)
Wind
330° at 11 knots
Temperature Dewpoint
24°C / 75°F 11°C / 52°F
Humidity Altimeter Pressure
44% 30.15" Hg 1021 hPa